Time;durP1;ratioP1;P1;durP2;ratioP2;P2;SDS_P1;SDS_P2;PMS_P1;PMS_P2;Temp;Humidity;BMP_temperature;BMP_pressure;BME280_temperature;BME280_humidity;BME280_pressure;Samples;Min_cycle;Max_cycle;Signal;HPM_P1;HPM_P2
2021/12/14 00:00:55;;;;;;;116.63;105.50;;;9.40;98.30;;;;;;5156568;27;20085;-78
2021/12/14 00:03:25;;;;;;;117.57;106.43;;;9.30;98.30;;;;;;5156614;27;20511;-78
2021/12/14 00:05:52;;;;;;;117.65;106.55;;;9.30;98.30;;;;;;5156486;27;20569;-78
2021/12/14 00:08:21;;;;;;;115.70;104.53;;;9.30;98.30;;;;;;5156285;27;20090;-78
2021/12/14 00:17:17;;;;;;;118.40;107.10;;;9.30;98.20;;;;;;4992510;28;20110;-78
2021/12/14 00:19:45;;;;;;;116.60;105.65;;;9.30;98.10;;;;;;5010900;28;20057;-78
2021/12/14 00:22:26;;;;;;;117.50;106.18;;;9.30;98.20;;;;;;5010996;28;20070;-78
2021/12/14 00:24:54;;;;;;;118.97;107.75;;;9.30;98.20;;;;;;4994396;28;20050;-78
2021/12/14 00:27:23;;;;;;;118.43;107.20;;;9.30;98.10;;;;;;4994383;28;20058;-78
2021/12/14 00:29:53;;;;;;;118.68;107.50;;;9.30;98.10;;;;;;4994402;28;20077;-78
2021/12/14 00:32:24;;;;;;;120.47;109.10;;;9.30;98.10;;;;;;5011027;28;20057;-78
2021/12/14 00:34:53;;;;;;;117.63;106.43;;;9.30;98.00;;;;;;4994643;28;20054;-78
2021/12/14 00:37:24;;;;;;;119.30;107.97;;;9.30;98.00;;;;;;4994431;28;20055;-78
2021/12/14 00:39:53;;;;;;;118.40;107.20;;;9.30;98.00;;;;;;4994243;28;20053;-78
2021/12/14 00:42:22;;;;;;;119.47;107.80;;;9.30;98.00;;;;;;4994303;28;20146;-78
2021/12/14 00:44:50;;;;;;;120.70;109.22;;;9.30;98.10;;;;;;4994222;28;20587;-78
2021/12/14 00:47:17;;;;;;;118.85;107.65;;;9.30;98.10;;;;;;4993999;28;20134;-78
2021/12/14 00:49:45;;;;;;;120.05;108.57;;;9.30;98.20;;;;;;4994334;28;20039;-78
2021/12/14 00:52:13;;;;;;;119.38;107.97;;;9.30;98.20;;;;;;5026178;28;20051;-78
2021/12/14 00:54:41;;;;;;;120.40;109.00;;;9.30;98.10;;;;;;5027052;28;20130;-78
2021/12/14 00:57:09;;;;;;;122.47;110.50;;;9.30;98.10;;;;;;4993872;28;20050;-78
2021/12/14 00:59:38;;;;;;;121.18;109.70;;;9.30;98.20;;;;;;4993871;28;20090;-78
2021/12/14 01:02:10;;;;;;;123.00;111.15;;;9.30;98.20;;;;;;4994127;28;20489;-78
2021/12/14 01:04:42;;;;;;;121.68;110.00;;;9.30;98.10;;;;;;4994019;28;20493;-78
2021/12/14 01:07:12;;;;;;;122.05;110.43;;;9.30;98.10;;;;;;4994026;28;20113;-78
2021/12/14 01:09:44;;;;;;;122.93;111.18;;;9.30;98.00;;;;;;4994086;28;20129;-78
2021/12/14 01:12:20;;;;;;;122.45;110.65;;;9.30;98.10;;;;;;4993997;28;20051;-79
2021/12/14 01:15:10;;;;;;;122.38;110.78;;;9.30;98.00;;;;;;4993472;28;20051;-78
2021/12/14 01:17:42;;;;;;;124.03;112.18;;;9.30;98.10;;;;;;5010217;28;20058;-77
2021/12/14 01:20:12;;;;;;;123.82;111.97;;;9.30;98.10;;;;;;4993675;28;20055;-78
2021/12/14 01:22:43;;;;;;;123.95;112.05;;;9.30;97.90;;;;;;5026526;28;20248;-78
2021/12/14 01:25:15;;;;;;;124.63;112.72;;;9.30;97.90;;;;;;4993677;28;20059;-78
2021/12/14 01:27:52;;;;;;;124.28;112.40;;;9.30;98.00;;;;;;5010294;28;20054;-78
2021/12/14 01:30:30;;;;;;;123.90;112.07;;;9.30;97.90;;;;;;5026525;28;20039;-78
2021/12/14 01:33:02;;;;;;;125.07;112.78;;;9.30;97.80;;;;;;5026421;28;20055;-77
2021/12/14 01:35:33;;;;;;;123.55;111.82;;;9.40;97.80;;;;;;4993705;28;20049;-78
2021/12/14 01:38:21;;;;;;;123.18;111.32;;;9.30;97.90;;;;;;5012274;28;20043;-77
2021/12/14 01:40:56;;;;;;;121.57;109.90;;;9.30;97.90;;;;;;5035192;28;20183;-77
2021/12/14 01:43:37;;;;;;;123.88;111.93;;;9.30;97.80;;;;;;5033277;28;20082;-77
2021/12/14 01:46:14;;;;;;;124.72;112.65;;;9.30;97.90;;;;;;5016864;28;20168;-77
2021/12/14 01:48:43;;;;;;;123.82;111.95;;;9.30;97.90;;;;;;5016334;28;20144;-77
2021/12/14 01:51:49;;;;;;;125.85;113.88;;;9.30;97.90;;;;;;4949633;28;20047;-77
2021/12/14 01:54:23;;;;;;;125.93;113.85;;;9.30;98.00;;;;;;5009194;28;20057;-77
2021/12/14 01:56:51;;;;;;;123.85;111.97;;;9.30;97.90;;;;;;5032751;28;20092;-77
2021/12/14 01:59:22;;;;;;;125.05;112.97;;;9.30;97.90;;;;;;4999360;28;20133;-77
2021/12/14 02:01:57;;;;;;;123.95;111.95;;;9.30;97.90;;;;;;4999296;28;20053;-77
2021/12/14 02:04:28;;;;;;;124.70;112.80;;;9.30;97.90;;;;;;4999705;28;20053;-77
2021/12/14 02:06:57;;;;;;;124.80;112.53;;;9.30;97.90;;;;;;5015921;28;20054;-77
2021/12/14 02:09:28;;;;;;;126.15;114.20;;;9.30;98.00;;;;;;4999797;28;20052;-77
2021/12/14 02:12:00;;;;;;;124.50;112.50;;;9.30;98.00;;;;;;4999428;28;21017;-77
2021/12/14 02:14:28;;;;;;;126.50;114.30;;;9.30;97.90;;;;;;4999631;28;20042;-77
2021/12/14 02:17:01;;;;;;;127.07;114.82;;;9.30;98.00;;;;;;5015846;28;20069;-77
2021/12/14 02:19:29;;;;;;;126.85;114.68;;;9.30;97.80;;;;;;4999259;28;20089;-77
2021/12/14 02:22:00;;;;;;;125.40;113.28;;;9.30;97.80;;;;;;4999782;28;20049;-77
2021/12/14 02:24:29;;;;;;;127.53;115.00;;;9.40;97.80;;;;;;4999409;28;20184;-77
2021/12/14 02:27:01;;;;;;;126.50;113.00;;;9.30;97.80;;;;;;4999523;28;20050;-77
2021/12/14 02:29:32;;;;;;;126.85;114.63;;;9.30;97.70;;;;;;4999737;28;20057;-77
2021/12/14 02:32:04;;;;;;;126.05;113.80;;;9.30;97.80;;;;;;4999304;28;20542;-77
2021/12/14 02:34:36;;;;;;;126.80;114.50;;;9.30;97.90;;;;;;4999244;28;20500;-77
2021/12/14 02:37:05;;;;;;;124.88;112.78;;;9.30;97.90;;;;;;4999381;28;20371;-77
2021/12/14 02:39:48;;;;;;;126.25;114.07;;;9.30;97.90;;;;;;4998842;28;20534;-77
2021/12/14 02:42:21;;;;;;;126.75;114.40;;;9.30;98.00;;;;;;4999441;28;20145;-77
2021/12/14 02:44:52;;;;;;;128.38;115.75;;;9.30;98.00;;;;;;4999156;28;20120;-77
2021/12/14 02:47:22;;;;;;;126.78;114.38;;;9.30;98.00;;;;;;4998987;28;20048;-77
2021/12/14 02:49:49;;;;;;;129.38;116.88;;;9.30;98.10;;;;;;5015585;28;20054;-77
2021/12/14 02:52:28;;;;;;;127.20;114.93;;;9.30;98.10;;;;;;5015490;28;20057;-77
2021/12/14 02:54:58;;;;;;;127.88;115.47;;;9.30;98.10;;;;;;5015340;28;20061;-77
2021/12/14 02:57:34;;;;;;;127.68;115.18;;;9.30;98.10;;;;;;4998695;28;20097;-77
2021/12/14 03:00:02;;;;;;;127.13;114.72;;;9.30;98.20;;;;;;5015506;28;20492;-78
2021/12/14 03:02:31;;;;;;;127.30;114.88;;;9.20;98.20;;;;;;4998888;28;20045;-77
2021/12/14 03:05:01;;;;;;;128.13;115.68;;;9.20;98.30;;;;;;4999065;28;20077;-77
2021/12/14 03:07:33;;;;;;;129.35;116.88;;;9.30;98.30;;;;;;4998538;28;20498;-77
2021/12/14 03:10:18;;;;;;;130.57;117.60;;;9.30;98.30;;;;;;4998916;28;20060;-77
2021/12/14 03:12:47;;;;;;;129.00;116.35;;;9.30;98.20;;;;;;4998799;28;20046;-77
2021/12/14 03:15:18;;;;;;;131.32;118.57;;;9.30;98.30;;;;;;5001335;28;20144;-77
2021/12/14 03:17:48;;;;;;;127.70;115.20;;;9.30;98.30;;;;;;5001833;28;20050;-77
2021/12/14 03:20:19;;;;;;;129.90;117.22;;;9.30;98.30;;;;;;5002151;28;20136;-77
2021/12/14 03:22:51;;;;;;;130.85;117.97;;;9.30;98.30;;;;;;5002325;28;20144;-77
2021/12/14 03:25:20;;;;;;;129.40;116.72;;;9.30;98.40;;;;;;5002130;28;20530;-78
2021/12/14 03:27:51;;;;;;;130.95;117.97;;;9.30;98.40;;;;;;5018161;28;20125;-77
2021/12/14 03:30:24;;;;;;;133.80;120.50;;;9.20;98.40;;;;;;5001990;28;20076;-77
2021/12/14 03:32:52;;;;;;;131.63;118.63;;;9.30;98.40;;;;;;5036378;28;20050;-77
2021/12/14 03:35:20;;;;;;;133.23;120.07;;;9.30;98.40;;;;;;5001859;28;20108;-77
2021/12/14 03:37:49;;;;;;;133.77;120.28;;;9.30;98.50;;;;;;5001534;28;20053;-77
2021/12/14 03:40:17;;;;;;;130.10;117.05;;;9.30;98.50;;;;;;5001665;28;20181;-77
2021/12/14 03:42:44;;;;;;;132.65;119.72;;;9.20;98.50;;;;;;5001700;28;20519;-77
2021/12/14 03:45:21;;;;;;;130.47;117.53;;;9.30;98.60;;;;;;5001625;28;20050;-77
2021/12/14 03:47:54;;;;;;;132.65;119.35;;;9.20;98.50;;;;;;5001723;28;20050;-77
2021/12/14 03:50:27;;;;;;;137.00;123.70;;;9.30;98.60;;;;;;5001898;28;20078;-77
2021/12/14 03:52:55;;;;;;;132.13;118.95;;;9.30;98.60;;;;;;5017895;28;20052;-77
2021/12/14 03:55:26;;;;;;;135.32;122.25;;;9.30;98.50;;;;;;5001726;28;20606;-77
2021/12/14 03:58:21;;;;;;;132.18;119.05;;;9.30;98.60;;;;;;5017877;28;20147;-77
2021/12/14 04:01:17;;;;;;;134.25;120.93;;;9.20;98.50;;;;;;5035599;28;20057;-77
2021/12/14 04:03:56;;;;;;;134.30;121.07;;;9.20;98.60;;;;;;5017851;28;20132;-77
2021/12/14 04:06:28;;;;;;;;;;;9.20;98.60;;;;;;5001732;28;20551;-77
2021/12/14 04:08:57;;;;;;;134.98;121.53;;;9.20;98.60;;;;;;5001663;28;19932;-77
2021/12/14 04:11:25;;;;;;;134.70;121.43;;;9.20;98.60;;;;;;5001391;28;20500;-77
2021/12/14 04:13:54;;;;;;;135.43;122.13;;;9.20;98.70;;;;;;5001265;28;20805;-77
2021/12/14 04:16:32;;;;;;;134.02;120.72;;;9.20;98.70;;;;;;5017444;28;20050;-77
2021/12/14 04:19:05;;;;;;;136.27;122.60;;;9.20;98.70;;;;;;5000868;28;20504;-77
2021/12/14 04:21:34;;;;;;;134.90;121.72;;;9.20;98.70;;;;;;5001125;28;20960;-77
2021/12/14 04:24:36;;;;;;;134.07;120.70;;;9.20;98.70;;;;;;5002353;28;20101;-77
2021/12/14 04:27:08;;;;;;;134.18;120.85;;;9.20;98.70;;;;;;5000879;28;20053;-76
2021/12/14 04:29:36;;;;;;;136.45;122.78;;;9.20;98.70;;;;;;5017682;28;20496;-77
2021/12/14 04:32:09;;;;;;;131.85;118.78;;;9.20;98.70;;;;;;5001073;28;20496;-77
2021/12/14 04:34:38;;;;;;;135.68;122.32;;;9.20;98.70;;;;;;5017323;28;20260;-77
2021/12/14 04:37:05;;;;;;;136.10;122.57;;;9.20;98.70;;;;;;5017080;28;20057;-77
2021/12/14 04:39:41;;;;;;;137.52;124.05;;;9.20;98.70;;;;;;5000657;28;20053;-77
2021/12/14 04:53:33;;;;;;;;;;;9.10;98.70;;;;;;5001144;28;20468;-77
2021/12/14 04:56:03;;;;;;;135.38;121.78;;;9.10;98.60;;;;;;5000983;28;20064;-77
2021/12/14 04:58:34;;;;;;;136.43;123.20;;;9.10;98.70;;;;;;5000137;28;20137;-77
2021/12/14 05:01:03;;;;;;;136.05;122.65;;;9.10;98.70;;;;;;5000478;28;20060;-77
2021/12/14 05:03:38;;;;;;;137.85;123.90;;;9.10;98.70;;;;;;5000494;28;20081;-77
2021/12/14 05:06:16;;;;;;;136.60;123.00;;;9.10;98.70;;;;;;5000390;28;20491;-77
2021/12/14 05:11:34;;;;;;;138.07;123.95;;;9.10;98.80;;;;;;5000084;28;20112;-77
2021/12/14 05:14:05;;;;;;;140.15;126.47;;;9.10;98.90;;;;;;5000144;28;20042;-77
2021/12/14 05:16:42;;;;;;;137.85;123.97;;;9.10;98.90;;;;;;4999740;28;20045;-77
2021/12/14 05:19:11;;;;;;;136.55;123.05;;;9.10;98.90;;;;;;4999853;28;20053;-77
2021/12/14 05:21:42;;;;;;;137.30;123.63;;;9.10;98.90;;;;;;5000180;28;20097;-77
2021/12/14 05:24:15;;;;;;;139.73;125.93;;;9.10;98.90;;;;;;5000302;28;20587;-77
2021/12/14 05:26:58;;;;;;;136.65;123.05;;;9.10;98.90;;;;;;5000263;28;20058;-77
2021/12/14 05:29:29;;;;;;;140.40;126.65;;;9.10;99.00;;;;;;5000209;28;20050;-77
2021/12/14 05:31:58;;;;;;;144.60;130.60;;;9.00;99.00;;;;;;5000323;28;20050;-77
2021/12/14 05:34:29;;;;;;;140.02;126.15;;;9.10;99.10;;;;;;5008893;28;20052;-77
2021/12/14 05:37:01;;;;;;;141.35;127.32;;;9.00;99.10;;;;;;5014641;28;20089;-77
2021/12/14 05:39:46;;;;;;;142.73;128.70;;;9.00;99.10;;;;;;5015409;28;20053;-77
2021/12/14 05:45:20;;;;;;;141.00;127.10;;;9.00;99.10;;;;;;5004828;28;20093;-77
2021/12/14 05:47:51;;;;;;;140.35;126.47;;;9.00;99.10;;;;;;5017606;28;20053;-77
2021/12/14 05:50:30;;;;;;;140.68;126.47;;;9.00;99.10;;;;;;5014508;28;20116;-77
2021/12/14 05:52:59;;;;;;;142.13;127.68;;;9.00;99.10;;;;;;5037275;28;20056;-77
2021/12/14 05:55:29;;;;;;;141.82;127.50;;;9.00;99.10;;;;;;5018858;28;20087;-77
2021/12/14 05:57:59;;;;;;;142.25;127.90;;;9.00;99.20;;;;;;5018544;28;20045;-77
2021/12/14 06:00:31;;;;;;;143.13;128.77;;;9.00;99.20;;;;;;5015717;28;20065;-77
2021/12/14 06:03:04;;;;;;;138.10;124.22;;;9.00;99.40;;;;;;5033765;28;20054;-77
2021/12/14 06:05:32;;;;;;;139.55;125.43;;;9.00;99.20;;;;;;5027315;28;20477;-77
2021/12/14 06:08:00;;;;;;;143.38;129.05;;;9.00;99.30;;;;;;5033299;28;20856;-77
2021/12/14 06:10:30;;;;;;;144.07;129.68;;;9.00;99.40;;;;;;5015367;28;20140;-77
2021/12/14 06:13:00;;;;;;;143.63;129.27;;;9.00;99.40;;;;;;5018889;28;20589;-77
2021/12/14 06:15:31;;;;;;;143.73;129.50;;;9.00;99.40;;;;;;5029594;28;20049;-77
2021/12/14 06:18:24;;;;;;;143.73;129.38;;;8.90;99.40;;;;;;5047750;28;20049;-77
2021/12/14 06:21:02;;;;;;;139.13;125.07;;;8.90;99.40;;;;;;5052273;28;20054;-77
2021/12/14 06:23:34;;;;;;;142.95;128.45;;;8.90;99.50;;;;;;5035951;28;20056;-77
2021/12/14 06:26:09;;;;;;;141.45;127.28;;;8.90;99.50;;;;;;5037464;28;20064;-77
2021/12/14 06:28:38;;;;;;;144.95;130.50;;;8.90;99.50;;;;;;5035321;28;20049;-77
2021/12/14 06:31:07;;;;;;;142.68;128.18;;;9.00;99.50;;;;;;5052415;28;20120;-77
2021/12/14 06:33:35;;;;;;;149.70;135.10;;;9.00;99.50;;;;;;5035518;28;20041;-77
2021/12/14 06:36:17;;;;;;;143.10;128.63;;;9.00;99.50;;;;;;5051741;28;20103;-77
2021/12/14 06:38:44;;;;;;;145.27;130.68;;;9.00;99.60;;;;;;5034989;28;20045;-77
2021/12/14 06:41:13;;;;;;;149.65;134.73;;;9.00;99.60;;;;;;5035517;28;20100;-77
2021/12/14 06:43:49;;;;;;;147.95;133.25;;;9.00;99.60;;;;;;5035481;28;20133;-77
2021/12/14 06:46:22;;;;;;;148.40;133.77;;;9.00;99.60;;;;;;5052324;28;20053;-77
2021/12/14 06:48:54;;;;;;;148.77;133.63;;;9.00;99.60;;;;;;5035907;28;20145;-77
2021/12/14 06:51:24;;;;;;;150.70;135.57;;;9.00;99.60;;;;;;5038791;28;20049;-77
2021/12/14 06:54:04;;;;;;;150.93;136.05;;;9.00;99.60;;;;;;5038810;28;20045;-77
2021/12/14 06:56:33;;;;;;;150.88;135.65;;;9.00;99.60;;;;;;5055454;28;20045;-77
2021/12/14 06:59:14;;;;;;;148.20;133.25;;;9.00;99.70;;;;;;5054917;28;20041;-77
2021/12/14 07:02:09;;;;;;;149.70;134.73;;;9.00;99.70;;;;;;5030992;28;20060;-77
2021/12/14 07:04:56;;;;;;;147.98;132.98;;;9.00;99.60;;;;;;5044344;28;20530;-77
2021/12/14 07:07:29;;;;;;;150.35;135.40;;;9.00;99.60;;;;;;5038350;28;20161;-76
2021/12/14 07:10:01;;;;;;;148.18;133.02;;;9.00;99.70;;;;;;5038481;28;20132;-77
2021/12/14 07:12:30;;;;;;;149.43;134.13;;;9.00;99.70;;;;;;5055271;28;20054;-77
2021/12/14 07:15:11;;;;;;;149.27;134.38;;;9.00;99.70;;;;;;5038573;28;20073;-77
2021/12/14 07:17:44;;;;;;;146.50;131.60;;;9.00;99.60;;;;;;5054205;28;20049;-77
2021/12/14 07:20:27;;;;;;;150.98;135.98;;;9.00;99.60;;;;;;5037875;28;20148;-77
2021/12/14 07:22:56;;;;;;;151.68;136.65;;;9.00;99.60;;;;;;5029231;28;20133;-77
2021/12/14 07:25:27;;;;;;;151.02;136.02;;;9.00;99.60;;;;;;5018032;28;20050;-77
2021/12/14 07:27:55;;;;;;;149.05;134.05;;;9.00;99.70;;;;;;5018059;28;20053;-77
2021/12/14 07:30:27;;;;;;;151.50;136.48;;;9.10;99.60;;;;;;5017366;28;20062;-77
2021/12/14 07:32:58;;;;;;;147.70;132.95;;;9.00;99.60;;;;;;5026044;28;20077;-81
2021/12/14 07:35:38;;;;;;;146.88;132.10;;;9.10;99.70;;;;;;5034655;28;20065;-81
2021/12/14 07:38:39;;;;;;;150.38;135.48;;;9.00;99.60;;;;;;5034321;28;20156;-78
2021/12/14 07:41:15;;;;;;;151.68;136.50;;;9.00;99.60;;;;;;4992731;28;20056;-78
2021/12/14 07:43:47;;;;;;;152.43;136.95;;;9.00;99.60;;;;;;5036700;28;20508;-79
2021/12/14 07:46:23;;;;;;;152.68;137.00;;;9.00;99.60;;;;;;5035674;28;20081;-79
2021/12/14 07:48:51;;;;;;;;;;;9.00;99.70;;;;;;5030622;28;20230;-78
2021/12/14 07:51:20;;;;;;;153.02;137.48;;;9.10;99.70;;;;;;5036715;28;20023;-79
2021/12/14 07:53:51;;;;;;;153.60;138.07;;;9.00;99.70;;;;;;4943472;28;20054;-79
2021/12/14 07:56:26;;;;;;;152.27;137.00;;;9.00;99.70;;;;;;5036320;28;20540;-79
2021/12/14 07:58:54;;;;;;;153.60;138.18;;;9.10;99.80;;;;;;5037332;28;20132;-78
2021/12/14 08:01:22;;;;;;;153.93;138.35;;;9.10;99.80;;;;;;5036670;28;20053;-78
2021/12/14 08:04:00;;;;;;;155.13;139.43;;;9.10;99.80;;;;;;5034808;28;20054;-79
2021/12/14 08:06:27;;;;;;;155.38;139.77;;;9.00;99.80;;;;;;5021204;28;20053;-79
2021/12/14 08:08:55;;;;;;;157.50;141.75;;;9.00;99.80;;;;;;5048653;28;20575;-79
2021/12/14 08:11:41;;;;;;;156.27;140.57;;;9.00;99.90;;;;;;5017184;28;20056;-78
2021/12/14 08:14:14;;;;;;;159.32;143.27;;;9.00;99.90;;;;;;5001416;28;20140;-80
2021/12/14 08:16:46;;;;;;;158.85;143.00;;;9.00;99.90;;;;;;5026095;28;20124;-79
2021/12/14 08:19:16;;;;;;;154.43;138.73;;;9.00;99.90;;;;;;5037099;28;20137;-77
2021/12/14 08:21:45;;;;;;;155.43;139.73;;;9.10;99.90;;;;;;5034298;28;20049;-79
2021/12/14 08:24:13;;;;;;;154.55;138.95;;;9.00;99.90;;;;;;5036995;28;21002;-79
2021/12/14 08:26:43;;;;;;;159.52;143.73;;;9.00;99.90;;;;;;5021082;28;20049;-78
2021/12/14 08:29:14;;;;;;;157.93;141.95;;;9.00;99.90;;;;;;5055106;28;20053;-78
2021/12/14 08:31:45;;;;;;;156.18;140.30;;;9.00;99.90;;;;;;5028150;28;20101;-80
2021/12/14 08:34:18;;;;;;;158.60;142.30;;;9.10;99.90;;;;;;5035110;28;20049;-77
2021/12/14 08:36:52;;;;;;;152.52;136.98;;;9.10;99.90;;;;;;5020524;28;20077;-77
2021/12/14 08:39:22;;;;;;;155.40;139.70;;;9.10;99.90;;;;;;5018660;28;20045;-77
2021/12/14 08:41:56;;;;;;;157.85;142.40;;;9.10;99.90;;;;;;5016737;28;20556;-77
2021/12/14 08:44:35;;;;;;;155.05;139.32;;;9.10;99.90;;;;;;5016536;28;20057;-79
2021/12/14 08:47:05;;;;;;;152.45;137.32;;;9.00;99.90;;;;;;5015838;28;20463;-79
2021/12/14 08:49:33;;;;;;;150.68;135.48;;;9.10;99.90;;;;;;5018494;28;20900;-79
2021/12/14 08:52:00;;;;;;;148.43;133.23;;;9.10;99.90;;;;;;5033559;28;20554;-79
2021/12/14 08:54:30;;;;;;;148.90;133.48;;;9.10;99.90;;;;;;5035966;28;20503;-78
2021/12/14 08:57:01;;;;;;;155.75;140.02;;;9.10;99.90;;;;;;5054721;28;20045;-78
2021/12/14 08:59:29;;;;;;;153.40;138.07;;;9.10;99.90;;;;;;5036694;28;20128;-76
2021/12/14 09:01:59;;;;;;;149.85;134.43;;;9.10;99.90;;;;;;5036665;28;20056;-76
2021/12/14 09:04:31;;;;;;;149.73;134.52;;;9.10;99.90;;;;;;5054501;28;20061;-77
2021/12/14 09:07:04;;;;;;;151.73;136.40;;;9.10;99.90;;;;;;5035659;28;20124;-77
2021/12/14 09:09:31;;;;;;;153.70;138.43;;;9.10;99.90;;;;;;5054472;28;20503;-76
2021/12/14 09:12:06;;;;;;;158.52;142.68;;;9.10;99.90;;;;;;5035690;28;20149;-75
2021/12/14 09:14:35;;;;;;;154.27;138.98;;;9.10;99.90;;;;;;5036615;28;20073;-75
2021/12/14 09:17:04;;;;;;;148.82;133.65;;;9.10;99.90;;;;;;5036145;28;20081;-76
2021/12/14 09:19:36;;;;;;;153.82;138.15;;;9.10;99.90;;;;;;5019944;28;20050;-74
2021/12/14 09:22:07;;;;;;;149.52;134.13;;;9.10;99.90;;;;;;5036075;28;20132;-75
2021/12/14 09:24:35;;;;;;;151.38;136.20;;;9.10;99.90;;;;;;5036311;28;20060;-75
2021/12/14 09:27:06;;;;;;;152.63;137.27;;;9.10;99.90;;;;;;5019214;28;20136;-77
2021/12/14 09:29:34;;;;;;;148.88;133.82;;;9.10;99.90;;;;;;5016127;28;20141;-76
2021/12/14 09:32:04;;;;;;;150.30;135.02;;;9.10;99.90;;;;;;5028720;28;20439;-76
2021/12/14 09:34:35;;;;;;;154.20;139.02;;;9.10;99.90;;;;;;5016114;28;20135;-78
2021/12/14 09:37:04;;;;;;;150.68;134.82;;;9.10;99.90;;;;;;5026755;28;20112;-77
2021/12/14 09:39:34;;;;;;;149.77;134.85;;;9.20;99.90;;;;;;5026578;28;20050;-76
2021/12/14 09:42:06;;;;;;;147.65;132.82;;;9.20;99.90;;;;;;5016275;28;20115;-76
2021/12/14 09:44:35;;;;;;;147.93;132.85;;;9.20;99.90;;;;;;5046044;28;20045;-75
2021/12/14 09:47:11;;;;;;;145.60;130.98;;;9.20;99.90;;;;;;5008138;28;20139;-77
2021/12/14 09:49:40;;;;;;;147.18;132.48;;;9.20;99.90;;;;;;5010980;28;20057;-76
2021/12/14 09:52:10;;;;;;;148.77;133.90;;;9.20;99.90;;;;;;5019797;28;20132;-76
2021/12/14 09:54:38;;;;;;;148.90;133.73;;;9.20;99.90;;;;;;5017548;28;20091;-75
2021/12/14 09:57:10;;;;;;;152.82;137.27;;;9.20;99.90;;;;;;5032918;28;20585;-75
2021/12/14 09:59:38;;;;;;;149.50;134.40;;;9.20;99.90;;;;;;5033546;28;20046;-76
2021/12/14 10:02:10;;;;;;;152.15;136.70;;;9.20;99.90;;;;;;5033583;28;20125;-75
2021/12/14 10:04:47;;;;;;;149.45;134.55;;;9.20;99.90;;;;;;5034891;28;20564;-76
2021/12/14 10:07:15;;;;;;;155.07;139.57;;;9.20;99.90;;;;;;5036823;28;20053;-76
2021/12/14 10:09:46;;;;;;;150.05;135.18;;;9.20;99.90;;;;;;5034467;28;20046;-75
2021/12/14 10:12:41;;;;;;;150.55;135.52;;;9.20;99.90;;;;;;5034529;28;20045;-78
2021/12/14 10:15:11;;;;;;;151.90;136.32;;;9.20;99.90;;;;;;4999339;28;20515;-78
2021/12/14 10:17:40;;;;;;;152.75;137.43;;;9.20;99.90;;;;;;5015665;28;20108;-78
2021/12/14 10:20:12;;;;;;;150.55;135.43;;;9.20;99.90;;;;;;5015828;28;20057;-77
2021/12/14 10:22:40;;;;;;;152.32;137.27;;;9.20;99.90;;;;;;5034338;28;20060;-76
2021/12/14 10:25:11;;;;;;;148.10;133.15;;;9.30;99.90;;;;;;5034447;28;20510;-76
2021/12/14 10:27:41;;;;;;;151.13;135.85;;;9.30;99.90;;;;;;5056025;28;20053;-77
2021/12/14 10:30:12;;;;;;;153.13;138.02;;;9.30;99.90;;;;;;5057313;28;20133;-78
2021/12/14 10:32:40;;;;;;;149.57;134.48;;;9.30;99.90;;;;;;5038253;28;20080;-80
2021/12/14 10:35:13;;;;;;;147.77;132.50;;;9.30;99.90;;;;;;5037760;28;20773;-76
2021/12/14 10:37:52;;;;;;;148.18;133.57;;;9.40;99.90;;;;;;5037951;28;20131;-81
2021/12/14 10:43:12;;;;;;;150.70;135.52;;;9.30;99.90;;;;;;5053526;28;20479;-77
2021/12/14 10:45:42;;;;;;;148.13;133.30;;;9.30;99.90;;;;;;5037883;28;20052;-75
2021/12/14 10:48:11;;;;;;;150.20;135.10;;;9.30;99.90;;;;;;5049245;28;20077;-74
2021/12/14 10:50:42;;;;;;;147.75;132.38;;;9.30;99.90;;;;;;5037870;28;20049;-73
2021/12/14 10:53:11;;;;;;;145.32;130.68;;;9.30;99.90;;;;;;5053523;28;20225;-74
2021/12/14 10:55:43;;;;;;;148.40;133.52;;;9.30;99.90;;;;;;5055394;28;20053;-73
2021/12/14 10:58:13;;;;;;;144.57;130.07;;;9.30;99.90;;;;;;5037013;28;20049;-74
2021/12/14 11:00:44;;;;;;;146.57;131.65;;;9.30;99.90;;;;;;5034222;28;20049;-74
2021/12/14 11:03:17;;;;;;;147.25;132.25;;;9.30;99.90;;;;;;5036039;28;20056;-74
2021/12/14 11:05:48;;;;;;;145.77;130.98;;;9.30;99.90;;;;;;5050657;28;20042;-73
2021/12/14 11:11:02;;;;;;;150.63;135.02;;;9.40;99.90;;;;;;5050565;28;20049;-72
2021/12/14 11:13:39;;;;;;;144.75;129.82;;;9.30;99.90;;;;;;5036841;28;20037;-72
2021/12/14 11:16:14;;;;;;;146.90;131.75;;;9.30;99.90;;;;;;5055120;28;20132;-77
2021/12/14 11:18:46;;;;;;;140.38;125.78;;;9.30;99.90;;;;;;5036738;28;20041;-74
2021/12/14 11:21:19;;;;;;;144.57;129.77;;;9.30;99.90;;;;;;5021131;28;20129;-73
2021/12/14 11:23:51;;;;;;;141.88;127.03;;;9.30;99.90;;;;;;5037430;28;20169;-74
2021/12/14 11:26:23;;;;;;;143.18;128.35;;;9.30;99.90;;;;;;5037917;28;20057;-72
2021/12/14 11:28:52;;;;;;;146.40;131.52;;;9.30;99.90;;;;;;5054922;28;20506;-73
2021/12/14 11:31:24;;;;;;;144.93;130.32;;;9.40;99.90;;;;;;5037995;28;20069;-73
2021/12/14 11:33:54;;;;;;;143.75;129.18;;;9.40;99.90;;;;;;5047928;28;20053;-74
2021/12/14 11:36:28;;;;;;;143.70;129.10;;;9.40;99.90;;;;;;5045443;28;20058;-74
2021/12/14 11:39:02;;;;;;;142.60;128.20;;;9.40;99.90;;;;;;5033863;28;20053;-73
2021/12/14 11:41:40;;;;;;;144.85;130.15;;;9.40;99.90;;;;;;5024682;28;20065;-76
2021/12/14 11:44:20;;;;;;;144.73;129.93;;;9.40;99.90;;;;;;5014739;28;20136;-79
2021/12/14 11:46:55;;;;;;;142.98;128.80;;;9.40;99.90;;;;;;5037670;28;20073;-76
2021/12/14 11:49:23;;;;;;;144.35;130.00;;;9.40;99.90;;;;;;5053717;28;20057;-75
2021/12/14 11:51:53;;;;;;;145.68;131.07;;;9.40;99.90;;;;;;5036376;28;20530;-75
2021/12/14 11:54:21;;;;;;;141.98;128.05;;;9.50;99.90;;;;;;5037226;28;20053;-74
2021/12/14 11:56:49;;;;;;;145.70;131.27;;;9.50;99.90;;;;;;5037674;28;20159;-74
2021/12/14 11:59:17;;;;;;;142.05;127.95;;;9.40;99.90;;;;;;5036400;28;20048;-73
2021/12/14 12:01:49;;;;;;;141.65;127.90;;;9.50;99.90;;;;;;5037033;28;20064;-73
2021/12/14 12:04:19;;;;;;;139.00;125.18;;;9.40;99.90;;;;;;5055068;28;20132;-73
2021/12/14 12:09:40;;;;;;;135.52;122.13;;;9.40;99.90;;;;;;5034607;28;20052;-73
2021/12/14 12:12:21;;;;;;;139.25;125.25;;;9.50;99.90;;;;;;5034577;28;20046;-73
2021/12/14 12:14:52;;;;;;;136.68;123.28;;;9.50;99.90;;;;;;5026256;28;20172;-73
2021/12/14 12:17:31;;;;;;;139.18;125.53;;;9.50;99.90;;;;;;5040340;28;20058;-73
2021/12/14 12:20:12;;;;;;;135.98;122.75;;;9.50;99.90;;;;;;5051121;28;20076;-73
2021/12/14 12:22:44;;;;;;;141.02;127.10;;;9.50;99.90;;;;;;5016252;28;20100;-73
2021/12/14 12:25:16;;;;;;;142.07;128.15;;;9.50;99.90;;;;;;5024921;28;20053;-74
2021/12/14 12:27:46;;;;;;;139.80;125.97;;;9.50;99.90;;;;;;5017617;28;20050;-74
2021/12/14 12:30:41;;;;;;;140.20;126.43;;;9.50;99.90;;;;;;5044902;28;20132;-75
2021/12/14 12:33:16;;;;;;;140.73;126.93;;;9.60;99.90;;;;;;5032732;28;20504;-76
2021/12/14 12:35:49;;;;;;;135.63;122.45;;;9.60;99.90;;;;;;4979998;28;20050;-76
2021/12/14 12:38:27;;;;;;;139.43;125.80;;;9.50;99.90;;;;;;5047463;28;20081;-75
2021/12/14 12:40:59;;;;;;;140.30;126.72;;;9.50;99.90;;;;;;5052021;28;20061;-75
2021/12/14 12:43:32;;;;;;;139.60;125.90;;;9.60;99.90;;;;;;5032602;28;20046;-75
2021/12/14 12:46:05;;;;;;;138.55;124.53;;;9.50;99.90;;;;;;5035205;28;20486;-75
2021/12/14 12:48:44;;;;;;;137.88;124.28;;;9.50;99.90;;;;;;5018819;28;20050;-75
2021/12/14 12:51:12;;;;;;;141.05;127.15;;;9.50;99.90;;;;;;5033100;28;20061;-75
2021/12/14 12:53:39;;;;;;;137.25;123.03;;;9.50;99.90;;;;;;5034548;28;20049;-75
2021/12/14 12:56:14;;;;;;;135.05;121.53;;;9.60;99.90;;;;;;5036006;28;20132;-75
2021/12/14 12:58:45;;;;;;;138.60;124.93;;;9.60;99.90;;;;;;5019177;28;21006;-75
2021/12/14 13:01:13;;;;;;;140.52;126.55;;;9.60;99.90;;;;;;5017228;28;20907;-75
2021/12/14 13:03:43;;;;;;;140.75;126.63;;;9.60;99.90;;;;;;5035907;28;20054;-74
2021/12/14 13:06:14;;;;;;;141.18;126.88;;;9.60;99.90;;;;;;5054022;28;20052;-75
2021/12/14 13:08:45;;;;;;;143.45;128.77;;;9.60;99.90;;;;;;5034717;28;20100;-74
2021/12/14 13:11:17;;;;;;;142.43;127.95;;;9.60;99.90;;;;;;5048977;28;20103;-75
2021/12/14 13:13:46;;;;;;;142.48;128.02;;;9.60;99.90;;;;;;5052964;28;20097;-75
2021/12/14 13:16:15;;;;;;;143.52;129.13;;;9.60;99.90;;;;;;5050037;28;20136;-75